createdAt,value
2018-08-06T00:00:19.958Z,6.50
2018-08-06T00:02:47.108Z,4.17
2018-08-06T00:05:14.103Z,3.93
2018-08-06T00:07:41.075Z,4.23
2018-08-06T00:10:11.512Z,5.00
2018-08-06T00:12:38.459Z,4.30
2018-08-06T00:15:06.683Z,3.33
2018-08-06T00:17:33.678Z,7.50
2018-08-06T00:20:00.677Z,3.10
2018-08-06T00:22:28.053Z,2.50
2018-08-06T00:24:55.108Z,3.00
2018-08-06T00:27:22.177Z,2.40
2018-08-06T00:29:49.236Z,2.70
2018-08-06T00:32:16.275Z,3.30
2018-08-06T00:34:43.396Z,3.40
2018-08-06T00:37:10.562Z,7.73
2018-08-06T00:39:37.649Z,7.27
2018-08-06T00:42:04.776Z,9.83
2018-08-06T00:44:31.927Z,3.80
2018-08-06T00:46:59.060Z,2.17
2018-08-06T00:49:26.081Z,2.77
2018-08-06T00:51:53.459Z,3.13
2018-08-06T00:54:20.433Z,3.40
2018-08-06T00:56:47.481Z,3.07
2018-08-06T00:59:14.611Z,3.60
2018-08-06T01:01:41.578Z,2.27
2018-08-06T01:04:08.528Z,3.10
2018-08-06T01:06:35.527Z,1.97
2018-08-06T01:09:02.711Z,2.17
2018-08-06T01:11:29.739Z,3.40
2018-08-06T01:13:56.733Z,2.00
2018-08-06T01:16:23.759Z,2.70
2018-08-06T01:18:50.797Z,2.67
2018-08-06T01:21:17.808Z,3.53
2018-08-06T01:23:44.825Z,2.07
2018-08-06T01:26:11.877Z,2.13
2018-08-06T01:28:38.880Z,2.03
2018-08-06T01:31:06.348Z,2.50
2018-08-06T01:33:33.321Z,2.10
2018-08-06T01:36:00.337Z,2.40
2018-08-06T01:38:27.402Z,3.00
2018-08-06T01:40:54.368Z,2.03
2018-08-06T01:43:21.333Z,3.00
2018-08-06T01:45:48.373Z,2.67
2018-08-06T01:48:15.311Z,2.30
2018-08-06T01:50:42.585Z,2.67
2018-08-06T01:53:09.617Z,2.87
2018-08-06T01:55:36.572Z,2.10
2018-08-06T01:58:03.532Z,2.70
2018-08-06T02:00:30.533Z,2.70
2018-08-06T02:02:57.497Z,2.93
2018-08-06T02:05:24.522Z,2.43
2018-08-06T02:07:51.579Z,1.83
2018-08-06T02:10:18.596Z,2.90
2018-08-06T02:12:45.981Z,2.30
2018-08-06T02:15:13.069Z,3.03
2018-08-06T02:17:40.234Z,2.50
2018-08-06T02:20:09.224Z,1.83
2018-08-06T02:22:36.715Z,1.70
2018-08-06T02:25:05.358Z,2.30
2018-08-06T02:27:32.359Z,2.47
2018-08-06T02:29:59.323Z,2.27
2018-08-06T02:32:26.270Z,2.20
2018-08-06T02:34:53.262Z,2.10
2018-08-06T02:37:20.217Z,2.07
2018-08-06T02:39:47.239Z,2.43
2018-08-06T02:42:14.278Z,2.23
2018-08-06T02:44:41.319Z,2.20
2018-08-06T02:47:08.369Z,2.70
2018-08-06T02:49:35.351Z,2.67
2018-08-06T02:52:02.402Z,2.77
2018-08-06T02:54:29.336Z,2.40
2018-08-06T02:56:56.314Z,2.30
2018-08-06T02:59:23.675Z,2.40
2018-08-06T03:01:50.647Z,2.23
2018-08-06T03:04:17.677Z,2.50
2018-08-06T03:06:44.640Z,2.57
2018-08-06T03:09:12.359Z,2.80
2018-08-06T03:11:39.657Z,3.00
2018-08-06T03:14:06.734Z,2.80
2018-08-06T03:16:33.696Z,2.70
2018-08-06T03:19:00.650Z,2.33
2018-08-06T03:21:27.713Z,2.47
2018-08-06T03:23:54.730Z,2.80
2018-08-06T03:26:21.717Z,2.60
2018-08-06T03:28:48.675Z,2.33
2018-08-06T03:31:15.670Z,2.10
2018-08-06T03:33:42.710Z,2.87
2018-08-06T03:36:09.735Z,2.40
2018-08-06T03:38:36.972Z,2.40
2018-08-06T03:41:03.921Z,2.83
2018-08-06T03:43:30.968Z,2.60
2018-08-06T03:45:57.983Z,2.33
2018-08-06T03:48:24.924Z,2.53
2018-08-06T03:50:51.943Z,2.90
2018-08-06T03:53:18.924Z,2.63
2018-08-06T03:55:45.885Z,2.60
2018-08-06T03:58:12.862Z,2.33
2018-08-06T04:00:39.856Z,2.83
2018-08-06T04:03:06.810Z,2.90
2018-08-06T04:05:33.794Z,3.30
2018-08-06T04:08:00.716Z,3.30
2018-08-06T04:10:27.696Z,3.50
2018-08-06T04:12:54.987Z,2.77
2018-08-06T04:15:21.965Z,2.70
2018-08-06T04:17:48.974Z,4.10
2018-08-06T04:20:16.017Z,2.77
2018-08-06T04:22:43.378Z,3.73
2018-08-06T04:25:10.392Z,2.73
2018-08-06T04:27:37.765Z,3.53
2018-08-06T04:30:06.951Z,3.30
2018-08-06T04:32:33.934Z,3.57
2018-08-06T04:35:00.897Z,3.63
2018-08-06T04:37:27.824Z,2.80
2018-08-06T04:39:54.798Z,3.50
2018-08-06T04:42:22.146Z,3.03
2018-08-06T04:44:49.314Z,2.90
2018-08-06T04:47:16.348Z,3.20
2018-08-06T04:49:43.308Z,6.53
2018-08-06T04:52:10.332Z,3.20
2018-08-06T04:54:37.317Z,4.03
2018-08-06T04:57:04.426Z,3.30
2018-08-06T04:59:31.427Z,3.63
2018-08-06T05:01:58.372Z,4.50
2018-08-06T05:04:25.366Z,3.90
2018-08-06T05:06:52.349Z,3.40
2018-08-06T05:09:20.938Z,4.37
2018-08-06T05:11:49.048Z,3.60
2018-08-06T05:14:15.992Z,4.10
2018-08-06T05:16:43.164Z,3.57
2018-08-06T05:19:10.394Z,3.83
2018-08-06T05:21:37.527Z,3.17
2018-08-06T05:24:04.549Z,6.17
2018-08-06T05:26:31.543Z,4.17
2018-08-06T05:28:58.551Z,3.60
2018-08-06T05:31:26.596Z,3.57
2018-08-06T05:33:54.051Z,3.50
2018-08-06T05:36:21.868Z,10.57
2018-08-06T05:38:49.416Z,3.80
2018-08-06T05:41:16.512Z,4.60
2018-08-06T05:43:43.501Z,3.83
2018-08-06T05:46:10.523Z,3.73
2018-08-06T05:48:38.048Z,3.50
2018-08-06T05:51:05.269Z,3.40
2018-08-06T05:53:32.324Z,3.83
2018-08-06T05:55:59.334Z,7.80
2018-08-06T05:58:26.346Z,3.67
2018-08-06T06:00:53.365Z,4.90
2018-08-06T06:03:20.368Z,5.30
2018-08-06T06:05:47.345Z,3.20
2018-08-06T06:08:14.357Z,4.70
2018-08-06T06:10:41.388Z,3.00
2018-08-06T06:13:08.374Z,3.30
2018-08-06T06:15:35.413Z,2.97
2018-08-06T06:18:02.413Z,3.43
2018-08-06T06:20:29.386Z,3.20
2018-08-06T06:22:56.603Z,2.37
2018-08-06T06:25:23.576Z,3.00
2018-08-06T06:27:50.550Z,3.27
2018-08-06T06:30:17.644Z,2.50
2018-08-06T06:32:44.742Z,2.57
2018-08-06T06:35:12.644Z,2.13
2018-08-06T06:37:39.640Z,2.17
2018-08-06T06:40:06.551Z,2.27
2018-08-06T06:42:33.549Z,2.23
2018-08-06T06:45:00.641Z,2.20
2018-08-06T06:47:27.669Z,2.83
2018-08-06T06:49:54.731Z,2.70
2018-08-06T06:52:21.757Z,2.80
2018-08-06T06:54:48.763Z,2.50
2018-08-06T06:57:15.766Z,2.80
2018-08-06T06:59:42.954Z,2.50
2018-08-06T07:02:10.069Z,2.40
2018-08-06T07:04:37.066Z,2.00
2018-08-06T07:07:04.340Z,3.10
2018-08-06T07:09:32.085Z,2.97
2018-08-06T07:11:59.169Z,3.20
2018-08-06T07:14:26.238Z,2.60
2018-08-06T07:16:53.328Z,2.47
2018-08-06T07:19:20.392Z,2.67
2018-08-06T07:21:47.757Z,2.70
2018-08-06T07:24:14.890Z,2.80
2018-08-06T07:26:41.961Z,2.67
2018-08-06T07:29:09.103Z,2.97
2018-08-06T07:31:36.235Z,2.27
2018-08-06T07:34:03.362Z,1.97
2018-08-06T07:36:30.468Z,1.90
2018-08-06T07:38:57.569Z,2.20
2018-08-06T07:41:24.622Z,3.00
2018-08-06T07:43:51.584Z,2.00
2018-08-06T07:46:18.668Z,2.03
2018-08-06T07:48:45.757Z,1.80
2018-08-06T07:51:12.869Z,2.47
2018-08-06T07:53:40.079Z,2.00
2018-08-06T07:56:07.198Z,2.30
2018-08-06T07:58:34.308Z,2.20
2018-08-06T08:01:01.388Z,1.90
2018-08-06T08:03:28.393Z,1.80
2018-08-06T08:05:55.426Z,2.10
2018-08-06T08:08:22.467Z,2.20
2018-08-06T08:10:49.466Z,10.73
2018-08-06T08:13:16.531Z,2.17
2018-08-06T08:15:43.510Z,2.40
2018-08-06T08:18:10.574Z,2.00
2018-08-06T08:20:37.598Z,1.63
2018-08-06T08:23:04.632Z,1.97
2018-08-06T08:25:31.691Z,2.10
2018-08-06T08:27:58.760Z,2.60
2018-08-06T08:30:25.755Z,2.00
2018-08-06T08:32:52.760Z,1.97
2018-08-06T08:35:19.795Z,2.07
2018-08-06T08:37:46.868Z,2.10
2018-08-06T08:40:15.551Z,2.20
2018-08-06T08:42:42.635Z,2.47
2018-08-06T08:45:11.675Z,2.20
2018-08-06T08:47:39.256Z,1.70
2018-08-06T08:50:07.676Z,2.50
2018-08-06T08:52:34.830Z,2.30
2018-08-06T08:55:01.895Z,2.00
2018-08-06T08:57:29.021Z,1.93
2018-08-06T08:59:56.235Z,2.60
2018-08-06T09:02:23.370Z,2.60
2018-08-06T09:04:51.051Z,1.97
2018-08-06T09:07:18.205Z,2.80
2018-08-06T09:09:45.276Z,1.80
2018-08-06T09:12:12.506Z,2.60
2018-08-06T09:14:39.602Z,2.27
2018-08-06T09:17:06.883Z,2.30
2018-08-06T09:19:34.078Z,1.70
2018-08-06T09:22:01.171Z,2.10
2018-08-06T09:24:28.317Z,1.83
2018-08-06T09:26:55.428Z,1.83
2018-08-06T09:29:22.577Z,2.70
2018-08-06T09:31:49.794Z,1.83
2018-08-06T09:34:17.071Z,1.83
2018-08-06T09:36:44.185Z,3.50
2018-08-06T09:39:12.383Z,2.20
2018-08-06T09:41:39.506Z,2.57
2018-08-06T09:44:07.065Z,2.20
2018-08-06T09:46:34.722Z,1.80
2018-08-06T09:49:02.012Z,2.20
2018-08-06T09:51:29.092Z,1.40
2018-08-06T09:53:56.211Z,1.60
2018-08-06T09:56:23.398Z,2.23
2018-08-06T09:58:50.465Z,1.90
2018-08-06T10:01:23.390Z,1.63
2018-08-06T10:03:50.443Z,1.57
2018-08-06T10:06:17.628Z,1.50
2018-08-06T10:08:44.675Z,1.47
2018-08-06T10:11:11.781Z,1.80
2018-08-06T10:13:38.857Z,1.73
2018-08-06T10:16:05.972Z,1.90
2018-08-06T10:18:33.076Z,2.40
2018-08-06T10:21:00.154Z,2.20
2018-08-06T10:23:27.231Z,2.03
2018-08-06T10:25:54.337Z,3.07
2018-08-06T10:28:21.407Z,3.90
2018-08-06T10:30:48.530Z,2.20
2018-08-06T10:33:15.624Z,2.43
2018-08-06T10:35:42.723Z,2.00
2018-08-06T10:38:09.792Z,1.63
2018-08-06T10:40:36.861Z,1.83
2018-08-06T10:43:03.900Z,2.20
2018-08-06T10:45:31.017Z,2.30
2018-08-06T10:47:58.057Z,1.57
2018-08-06T10:50:25.128Z,1.80
2018-08-06T10:52:52.191Z,1.50
2018-08-06T10:55:19.277Z,2.03
2018-08-06T10:57:46.331Z,2.27
2018-08-06T11:00:15.041Z,2.80
2018-08-06T11:02:42.256Z,1.77
2018-08-06T11:05:10.565Z,2.50
2018-08-06T11:07:37.769Z,2.53
2018-08-06T11:10:05.834Z,3.13
2018-08-06T11:12:32.872Z,2.50
2018-08-06T11:14:59.985Z,2.53
2018-08-06T11:17:27.072Z,2.00
2018-08-06T11:19:54.115Z,1.73
2018-08-06T11:22:21.205Z,1.90
2018-08-06T11:24:48.265Z,1.80
2018-08-06T11:27:15.407Z,1.70
2018-08-06T11:29:42.484Z,1.80
2018-08-06T11:32:09.549Z,1.60
2018-08-06T11:34:36.736Z,2.20
2018-08-06T11:37:03.878Z,2.13
2018-08-06T11:39:30.965Z,1.40
2018-08-06T11:41:58.091Z,1.80
2018-08-06T11:44:25.191Z,2.50
2018-08-06T11:46:52.330Z,2.50
2018-08-06T11:49:19.389Z,2.53
2018-08-06T11:51:46.500Z,3.00
2018-08-06T11:54:13.589Z,2.30
2018-08-06T11:56:40.776Z,2.13
2018-08-06T11:59:07.800Z,2.33
2018-08-06T12:01:34.890Z,1.60
2018-08-06T12:04:01.945Z,2.40
2018-08-06T12:06:29.074Z,2.70
2018-08-06T12:08:56.190Z,2.47
2018-08-06T12:11:23.245Z,3.00
2018-08-06T12:13:50.337Z,1.57
2018-08-06T12:16:17.495Z,1.40
2018-08-06T12:18:44.681Z,1.30
2018-08-06T12:21:11.806Z,1.33
2018-08-06T12:23:38.886Z,1.20
2018-08-06T12:26:06.139Z,6.37
2018-08-06T12:28:33.233Z,1.60
2018-08-06T12:31:00.380Z,1.87
2018-08-06T12:33:27.501Z,2.57
2018-08-06T12:35:54.673Z,2.20
2018-08-06T12:38:21.763Z,4.27
2018-08-06T12:40:48.856Z,2.80
2018-08-06T12:43:16.020Z,2.60
2018-08-06T12:45:43.136Z,2.40
2018-08-06T12:48:10.390Z,2.60
2018-08-06T12:50:37.504Z,1.43
2018-08-06T12:53:04.656Z,2.30
2018-08-06T12:55:31.729Z,10.83
2018-08-06T12:57:58.834Z,2.63
2018-08-06T13:00:26.859Z,1.17
2018-08-06T13:02:54.501Z,1.67
2018-08-06T13:05:22.306Z,1.90
2018-08-06T13:07:49.413Z,2.30
2018-08-06T13:10:16.489Z,2.80
2018-08-06T13:12:43.564Z,2.47
2018-08-06T13:15:11.838Z,1.70
2018-08-06T13:17:39.157Z,3.53
2018-08-06T13:20:06.536Z,1.63
2018-08-06T13:22:33.701Z,3.50
2018-08-06T13:25:00.760Z,2.47
2018-08-06T13:27:27.985Z,1.40
2018-08-06T13:29:55.097Z,1.17
2018-08-06T13:32:22.218Z,2.40
2018-08-06T13:34:49.381Z,1.90
2018-08-06T13:37:16.475Z,1.90
2018-08-06T13:39:43.578Z,1.67
2018-08-06T13:42:10.652Z,2.30
2018-08-06T13:44:37.714Z,3.03
2018-08-06T13:47:04.872Z,2.17
2018-08-06T13:49:31.947Z,2.13
2018-08-06T13:51:59.150Z,5.53
2018-08-06T13:54:26.253Z,2.03
2018-08-06T13:56:53.369Z,7.03
2018-08-06T13:59:20.663Z,4.50
2018-08-06T14:01:47.694Z,2.40
2018-08-06T14:04:14.809Z,2.10
2018-08-06T14:06:41.885Z,2.33
2018-08-06T14:09:10.339Z,2.50
2018-08-06T14:11:37.461Z,2.40
2018-08-06T14:14:04.533Z,2.00
2018-08-06T14:16:31.575Z,5.70
2018-08-06T14:18:58.730Z,5.43
2018-08-06T14:21:25.830Z,1.77
2018-08-06T14:23:52.904Z,3.73
2018-08-06T14:26:20.049Z,2.40
2018-08-06T14:28:47.364Z,2.07
2018-08-06T14:31:14.437Z,1.90
2018-08-06T14:33:41.598Z,1.70
2018-08-06T14:36:08.672Z,1.90
2018-08-06T14:38:35.748Z,2.17
2018-08-06T14:41:02.853Z,3.30
2018-08-06T14:43:29.893Z,2.20
2018-08-06T14:45:57.001Z,4.47
2018-08-06T14:48:24.431Z,3.93
2018-08-06T14:50:51.537Z,3.53
2018-08-06T14:53:18.616Z,5.00
2018-08-06T14:55:46.012Z,2.70
2018-08-06T14:58:13.121Z,2.20
2018-08-06T15:00:40.225Z,1.90
2018-08-06T15:03:07.339Z,3.97
2018-08-06T15:05:34.503Z,7.90
2018-08-06T15:08:01.611Z,3.00
2018-08-06T15:10:28.749Z,2.33
2018-08-06T15:12:55.832Z,1.70
2018-08-06T15:15:22.952Z,2.10
2018-08-06T15:17:50.324Z,3.40
2018-08-06T15:20:18.344Z,2.70
2018-08-06T15:22:45.502Z,2.40
2018-08-06T15:25:13.503Z,2.73
2018-08-06T15:27:41.060Z,3.03
2018-08-06T15:30:08.472Z,2.20
2018-08-06T15:32:35.569Z,2.20
2018-08-06T15:35:02.912Z,5.07
2018-08-06T15:37:30.058Z,1.87
2018-08-06T15:39:57.141Z,2.50
2018-08-06T15:42:24.221Z,2.50
2018-08-06T15:44:51.322Z,2.77
2018-08-06T15:47:18.478Z,3.70
2018-08-06T15:49:45.535Z,2.20
2018-08-06T15:52:12.594Z,2.40
2018-08-06T15:54:39.696Z,2.00
2018-08-06T15:57:06.862Z,2.40
2018-08-06T15:59:33.944Z,2.40
2018-08-06T16:02:01.036Z,2.53
2018-08-06T16:04:28.073Z,2.87
2018-08-06T16:06:55.141Z,3.50
2018-08-06T16:09:22.308Z,2.80
2018-08-06T16:11:49.389Z,5.33
2018-08-06T16:14:16.732Z,2.37
2018-08-06T16:16:43.793Z,4.17
2018-08-06T16:19:10.840Z,4.20
2018-08-06T16:21:37.931Z,2.53
2018-08-06T16:24:05.082Z,2.80
2018-08-06T16:26:32.169Z,6.07
2018-08-06T16:28:59.277Z,2.00
2018-08-06T16:31:26.391Z,2.83
2018-08-06T16:33:53.536Z,1.93
2018-08-06T16:36:20.615Z,2.70
2018-08-06T16:38:47.717Z,3.37
2018-08-06T16:41:15.112Z,3.00
2018-08-06T16:43:42.180Z,3.73
2018-08-06T16:46:11.724Z,3.20
2018-08-06T16:48:38.786Z,2.17
2018-08-06T16:51:05.913Z,4.37
2018-08-06T16:53:33.054Z,4.43
2018-08-06T16:56:00.104Z,2.60
2018-08-06T16:58:27.211Z,2.77
2018-08-06T17:00:54.354Z,4.60
2018-08-06T17:03:21.490Z,3.83
2018-08-06T17:05:48.621Z,4.13
2018-08-06T17:08:15.719Z,3.83
2018-08-06T17:10:42.845Z,3.77
2018-08-06T17:13:09.947Z,2.30
2018-08-06T17:15:37.060Z,2.70
2018-08-06T17:18:04.154Z,2.87
2018-08-06T17:20:31.281Z,1.90
2018-08-06T17:22:58.365Z,2.47
2018-08-06T17:25:25.453Z,4.00
2018-08-06T17:27:52.507Z,4.53
2018-08-06T17:30:19.579Z,3.50
2018-08-06T17:32:46.693Z,3.47
2018-08-06T17:35:14.223Z,2.47
2018-08-06T17:37:41.271Z,3.07
2018-08-06T17:40:10.936Z,3.87
2018-08-06T17:42:38.808Z,3.57
2018-08-06T17:45:06.730Z,5.03
2018-08-06T17:47:33.813Z,5.30
2018-08-06T17:50:00.923Z,3.10
2018-08-06T17:52:27.973Z,3.80
2018-08-06T17:54:55.071Z,5.60
2018-08-06T17:57:22.144Z,2.37
2018-08-06T17:59:49.230Z,4.37
2018-08-06T18:02:16.302Z,3.50
2018-08-06T18:04:43.393Z,3.33
2018-08-06T18:07:10.352Z,4.27
2018-08-06T18:09:37.337Z,8.50
2018-08-06T18:12:04.350Z,9.13
2018-08-06T18:14:31.351Z,5.50
2018-08-06T18:16:58.342Z,4.23
2018-08-06T18:19:25.390Z,6.20
2018-08-06T18:21:52.414Z,3.67
2018-08-06T18:24:19.353Z,4.80
2018-08-06T18:26:46.637Z,5.80
2018-08-06T18:29:13.658Z,3.40
2018-08-06T18:31:40.624Z,4.47
2018-08-06T18:34:07.796Z,3.60
2018-08-06T18:36:34.788Z,4.37
2018-08-06T18:39:01.745Z,5.30
2018-08-06T18:41:29.762Z,5.80
2018-08-06T18:43:56.816Z,6.40
2018-08-06T18:46:23.797Z,4.10
2018-08-06T18:48:50.765Z,5.30
2018-08-06T18:51:18.071Z,5.70
2018-08-06T18:53:45.062Z,4.60
2018-08-06T18:56:12.386Z,4.33
2018-08-06T18:58:39.358Z,4.67
2018-08-06T19:01:06.895Z,5.27
2018-08-06T19:03:33.841Z,6.70
2018-08-06T19:06:00.842Z,6.87
2018-08-06T19:08:27.819Z,7.17
2018-08-06T19:10:54.874Z,12.10
2018-08-06T19:13:27.694Z,7.53
2018-08-06T19:15:54.685Z,11.27
2018-08-06T19:18:27.370Z,10.40
2018-08-06T19:20:54.378Z,7.10
2018-08-06T19:23:21.687Z,7.90
2018-08-06T19:25:48.688Z,7.33
2018-08-06T19:28:15.711Z,10.37
2018-08-06T19:30:48.697Z,7.70
2018-08-06T19:33:15.715Z,9.93
2018-08-06T19:35:42.714Z,8.33
2018-08-06T19:38:09.722Z,9.07
2018-08-06T19:40:36.949Z,12.10
2018-08-06T19:43:09.942Z,10.30
2018-08-06T19:45:36.977Z,10.40
2018-08-06T19:48:03.920Z,7.37
2018-08-06T19:50:38.154Z,7.37
2018-08-06T19:53:05.296Z,5.37
2018-08-06T19:55:38.219Z,5.17
2018-08-06T19:58:05.522Z,5.63
2018-08-06T20:00:32.555Z,5.83
2018-08-06T20:02:59.883Z,6.90
2018-08-06T20:05:26.895Z,4.90
2018-08-06T20:07:53.838Z,4.57
2018-08-06T20:10:20.884Z,4.07
2018-08-06T20:12:47.930Z,4.43
2018-08-06T20:15:16.666Z,4.80
2018-08-06T20:17:43.803Z,4.40
2018-08-06T20:20:12.605Z,5.23
2018-08-06T20:22:39.692Z,6.43
2018-08-06T20:25:09.513Z,5.23
2018-08-06T20:27:36.481Z,4.50
2018-08-06T20:30:05.282Z,5.03
2018-08-06T20:32:32.344Z,7.20
2018-08-06T20:34:59.350Z,6.70
2018-08-06T20:37:26.321Z,6.80
2018-08-06T20:39:53.452Z,4.50
2018-08-06T20:42:20.659Z,4.53
2018-08-06T20:44:47.871Z,5.50
2018-08-06T20:47:14.845Z,5.13
2018-08-06T20:49:41.945Z,5.87
2018-08-06T20:52:08.975Z,5.20
2018-08-06T20:54:35.944Z,5.30
2018-08-06T20:57:02.938Z,5.87
2018-08-06T20:59:30.074Z,6.13
2018-08-06T21:01:57.065Z,5.53
2018-08-06T21:04:24.106Z,5.20
2018-08-06T21:06:51.151Z,5.10
2018-08-06T21:09:18.191Z,4.30
2018-08-06T21:11:45.219Z,4.17
2018-08-06T21:14:12.230Z,4.13
2018-08-06T21:16:39.221Z,4.50
2018-08-06T21:19:06.304Z,4.00
2018-08-06T21:21:33.623Z,3.93
2018-08-06T21:24:00.648Z,4.30
2018-08-06T21:26:28.654Z,3.80
2018-08-06T21:28:55.637Z,3.40
2018-08-06T21:31:22.608Z,3.50
2018-08-06T21:33:49.696Z,3.53
2018-08-06T21:36:18.283Z,3.77
2018-08-06T21:38:47.038Z,3.10
2018-08-06T21:41:14.809Z,3.30
2018-08-06T21:43:41.961Z,3.40
2018-08-06T21:46:08.961Z,2.70
2018-08-06T21:48:35.948Z,3.00
2018-08-06T21:51:02.923Z,2.80
2018-08-06T21:53:29.943Z,2.93
2018-08-06T21:55:57.796Z,2.67
2018-08-06T21:58:24.733Z,2.87
2018-08-06T22:00:51.713Z,2.77
2018-08-06T22:03:18.683Z,2.90
2018-08-06T22:05:46.229Z,3.10
2018-08-06T22:08:13.610Z,2.80
2018-08-06T22:10:40.653Z,3.27
2018-08-06T22:13:08.490Z,3.10
2018-08-06T22:15:35.811Z,3.90
2018-08-06T22:18:02.849Z,3.30
2018-08-06T22:20:29.942Z,3.07
2018-08-06T22:22:56.968Z,3.20
2018-08-06T22:25:24.232Z,2.80
2018-08-06T22:27:51.268Z,2.70
2018-08-06T22:30:18.280Z,2.83
2018-08-06T22:32:45.287Z,2.80
2018-08-06T22:35:12.852Z,2.60
2018-08-06T22:37:40.529Z,2.80
2018-08-06T22:40:08.922Z,2.87
2018-08-06T22:42:35.968Z,2.60
2018-08-06T22:45:03.505Z,2.50
2018-08-06T22:47:30.777Z,3.13
2018-08-06T22:49:57.830Z,3.20
2018-08-06T22:52:24.806Z,2.60
2018-08-06T22:54:51.749Z,3.03
2018-08-06T22:57:18.760Z,2.90
2018-08-06T22:59:45.879Z,2.43
2018-08-06T23:02:12.929Z,2.80
2018-08-06T23:04:39.927Z,2.40
2018-08-06T23:07:06.962Z,2.43
2018-08-06T23:09:33.877Z,2.77
2018-08-06T23:12:00.849Z,2.50
2018-08-06T23:14:27.829Z,2.70
2018-08-06T23:16:54.769Z,2.33
2018-08-06T23:19:22.070Z,2.77
2018-08-06T23:21:49.025Z,2.60
2018-08-06T23:24:15.988Z,2.73
2018-08-06T23:26:42.990Z,2.23
2018-08-06T23:29:09.993Z,2.33
2018-08-06T23:31:36.978Z,2.40
2018-08-06T23:34:04.082Z,2.20
2018-08-06T23:36:30.992Z,2.47
2018-08-06T23:38:58.156Z,2.50
2018-08-06T23:41:25.139Z,2.50
2018-08-06T23:43:52.146Z,2.60
2018-08-06T23:46:19.226Z,2.47
2018-08-06T23:48:46.534Z,2.90
2018-08-06T23:51:13.609Z,2.60
2018-08-06T23:53:40.535Z,2.63
2018-08-06T23:56:07.539Z,2.73
2018-08-06T23:58:34.625Z,2.30
